This is the latest recevied weather packets stored in our database for station/object N5ZKK. If no packets are shown the sender has not sent any weather packets the latest 10 day(s).
| Time | Temp. | Humidity | Pressure | Rain* | Wind** | Luminosity | Snow |
|---|---|---|---|---|---|---|---|
| 1777097395 | 19.44° C | 98% | 1008.6 hPa | 0 mm | - | - | - |
| 1777095595 | 19.44° C | 97% | 1008.7 hPa | 0 mm | - | - | - |
| 1777093795 | 20° C | 95% | 1008.5 hPa | 0 mm | - | - | - |
| 1777091995 | 20.56° C | 93% | 1008.6 hPa | 0 mm | - | - | - |
| 1777090195 | 21.67° C | 89% | 1008.4 hPa | 0 mm | - | - | - |
| 1777088395 | 22.22° C | 86% | 1008 hPa | 0 mm | - | - | - |
| 1777086595 | 23.33° C | 83% | 1007.7 hPa | 0 mm | - | - | - |
| 1777084795 | 25° C | 77% | 1006.7 hPa | 0 mm | - | - | - |
| 1777082995 | 26.11° C | 73% | 1006.5 hPa | 0 mm | - | - | - |
| 1777081195 | 27.22° C | 70% | 1006.1 hPa | 0 mm | - | - | - |
| 1777079395 | 28.33° C | 65% | 1005.4 hPa | 0 mm | - | - | - |
| 1777077595 | 31.11° C | 55% | 1004.9 hPa | 0 mm | - | - | - |
| 1777075795 | 31.67° C | 54% | 1004.7 hPa | 0 mm | - | - | - |
| 1777073995 | 31.67° C | 53% | 1004.5 hPa | 0 mm | - | - | - |
| 1777072195 | 32.22° C | 52% | 1004.3 hPa | 0 mm | - | - | - |
| 1777070395 | 32.22° C | 51% | 1004.2 hPa | 0 mm | - | - | - |
| 1777068595 | 33.33° C | 48% | 1004 hPa | 0 mm | - | - | - |
| 1777066795 | 33.89° C | 46% | 1004.2 hPa | 0 mm | - | - | - |
| 1777064995 | 33.89° C | 46% | 1004.6 hPa | 0 mm | - | - | - |
| 1777063195 | 35° C | 43% | 1005.1 hPa | 0 mm | - | - | - |
| 1777061395 | 33.89° C | 44% | 1005.5 hPa | 0 mm | - | - | - |
| 1777059595 | 33.89° C | 46% | 1005.9 hPa | 0 mm | - | - | - |
| 1777057795 | 32.78° C | 49% | 1006.3 hPa | 0 mm | - | - | - |
| 1777055995 | 30.56° C | 59% | 1007.2 hPa | 0 mm | - | - | - |
| 1777054195 | 30° C | 63% | 1007.7 hPa | 0 mm | - | - | - |
* Rain latest hour (hover to see other rain measurements)
** Current wind speed in m/s (hover to see current wind gust speed)